createdAt,value
2022-12-03T00:00:35.721Z,8.30
2022-12-03T00:03:02.403Z,8.40
2022-12-03T00:05:29.112Z,8.43
2022-12-03T00:07:55.736Z,8.85
2022-12-03T00:10:22.353Z,9.02
2022-12-03T00:12:48.903Z,8.60
2022-12-03T00:15:16.471Z,8.02
2022-12-03T00:17:43.041Z,8.25
2022-12-03T00:20:11.051Z,8.68
2022-12-03T00:22:37.644Z,8.98
2022-12-03T00:25:04.454Z,8.77
2022-12-03T00:27:31.099Z,8.85
2022-12-03T00:29:57.701Z,9.15
2022-12-03T00:32:24.276Z,8.77
2022-12-03T00:34:50.965Z,8.57
2022-12-03T00:37:17.711Z,9.02
2022-12-03T00:39:44.245Z,8.35
2022-12-03T00:42:10.851Z,8.80
2022-12-03T00:44:37.405Z,8.10
2022-12-03T00:47:04.268Z,8.90
2022-12-03T00:49:31.034Z,8.95
2022-12-03T00:51:57.576Z,8.77
2022-12-03T00:54:29.974Z,8.57
2022-12-03T00:56:58.388Z,8.88
2022-12-03T00:59:25.237Z,8.82
2022-12-03T01:01:51.932Z,9.30
2022-12-03T01:04:18.686Z,8.45
2022-12-03T01:06:45.367Z,8.85
2022-12-03T01:09:11.955Z,9.18
2022-12-03T01:11:38.767Z,8.93
2022-12-03T01:14:06.485Z,8.75
2022-12-03T01:16:33.291Z,8.73
2022-12-03T01:18:59.992Z,8.93
2022-12-03T01:21:26.577Z,9.60
2022-12-03T01:23:53.182Z,8.68
2022-12-03T01:26:19.806Z,9.07
2022-12-03T01:28:46.492Z,9.02
2022-12-03T01:31:31.392Z,9.18
2022-12-03T01:33:58.091Z,8.65
2022-12-03T01:36:24.666Z,9.10
2022-12-03T01:38:51.220Z,9.05
2022-12-03T01:41:17.872Z,9.05
2022-12-03T01:43:44.522Z,8.95
2022-12-03T01:46:13.786Z,9.35
2022-12-03T01:48:40.477Z,9.15
2022-12-03T01:51:07.320Z,8.52
2022-12-03T01:53:35.955Z,8.70
2022-12-03T01:56:02.554Z,9.43
2022-12-03T01:58:29.183Z,9.32
2022-12-03T02:01:01.109Z,9.27
2022-12-03T02:03:27.739Z,9.30
2022-12-03T02:05:54.314Z,8.98
2022-12-03T02:08:30.930Z,8.65
2022-12-03T02:11:03.118Z,8.60
2022-12-03T02:13:29.712Z,9.25
2022-12-03T02:15:56.286Z,8.90
2022-12-03T02:18:22.904Z,8.82
2022-12-03T02:21:15.927Z,9.20
2022-12-03T02:23:57.815Z,8.60
2022-12-03T02:26:24.389Z,9.13
2022-12-03T02:28:51.008Z,9.57
2022-12-03T02:31:17.730Z,9.18
2022-12-03T02:33:44.354Z,9.48
2022-12-03T02:36:11.067Z,8.68
2022-12-03T02:38:37.638Z,8.75
2022-12-03T02:41:06.715Z,8.88
2022-12-03T02:43:33.282Z,9.15
2022-12-03T02:46:00.252Z,8.80
2022-12-03T02:48:30.238Z,8.73
2022-12-03T02:51:04.406Z,8.70
2022-12-03T02:53:44.449Z,9.15
2022-12-03T02:56:12.280Z,8.45
2022-12-03T02:58:38.862Z,8.65
2022-12-03T03:01:05.567Z,9.15
2022-12-03T03:03:32.406Z,8.55
2022-12-03T03:05:59.539Z,8.88
2022-12-03T03:08:26.165Z,9.32
2022-12-03T03:10:52.722Z,8.63
2022-12-03T03:13:19.549Z,8.60
2022-12-03T03:15:46.224Z,9.20
2022-12-03T03:18:13.133Z,9.10
2022-12-03T03:20:39.773Z,8.63
2022-12-03T03:23:07.265Z,8.80
2022-12-03T03:25:33.813Z,9.18
2022-12-03T03:28:00.401Z,8.95
2022-12-03T03:30:26.977Z,9.20
2022-12-03T03:32:53.603Z,9.30
2022-12-03T03:35:20.208Z,9.55
2022-12-03T03:37:46.777Z,8.93
2022-12-03T03:40:13.849Z,9.63
2022-12-03T03:42:40.477Z,9.18
2022-12-03T03:45:08.035Z,9.80
2022-12-03T03:47:34.628Z,9.23
2022-12-03T03:50:01.221Z,8.65
2022-12-03T03:52:27.858Z,8.68
2022-12-03T03:54:54.620Z,9.25
2022-12-03T03:57:21.371Z,9.20
2022-12-03T03:59:47.965Z,9.55
2022-12-03T04:02:24.783Z,8.43
2022-12-03T04:04:51.813Z,8.95
2022-12-03T04:07:18.637Z,8.73
2022-12-03T04:09:45.252Z,9.13
2022-12-03T04:12:30.630Z,8.07
2022-12-03T04:14:57.744Z,8.57
2022-12-03T04:17:24.414Z,8.60
2022-12-03T04:19:50.969Z,8.63
2022-12-03T04:22:36.108Z,8.52
2022-12-03T04:25:21.509Z,8.30
2022-12-03T04:28:06.832Z,8.57
2022-12-03T04:30:33.412Z,9.40
2022-12-03T04:33:18.587Z,8.05
2022-12-03T04:35:45.234Z,8.18
2022-12-03T04:38:12.554Z,9.18
2022-12-03T04:40:58.545Z,8.85
2022-12-03T04:43:25.305Z,8.35
2022-12-03T04:45:51.970Z,8.93
2022-12-03T04:48:18.593Z,8.65
2022-12-03T04:50:45.249Z,8.63
2022-12-03T04:53:11.867Z,9.60
2022-12-03T04:55:38.488Z,8.70
2022-12-03T04:58:05.212Z,8.82
2022-12-03T05:00:31.903Z,8.00
2022-12-03T05:02:58.676Z,9.15
2022-12-03T05:05:25.338Z,8.55
2022-12-03T05:07:51.918Z,9.43
2022-12-03T05:10:18.531Z,8.90
2022-12-03T05:12:45.082Z,8.95
2022-12-03T05:15:11.628Z,8.52
2022-12-03T05:17:38.308Z,8.57
2022-12-03T05:20:23.953Z,8.77
2022-12-03T05:25:17.091Z,8.77
2022-12-03T05:27:43.699Z,8.85
2022-12-03T05:30:10.585Z,9.68
2022-12-03T05:32:38.439Z,8.57
2022-12-03T05:35:05.334Z,9.65
2022-12-03T05:37:31.903Z,9.02
2022-12-03T05:39:58.500Z,9.20
2022-12-03T05:42:43.638Z,8.25
2022-12-03T05:45:10.674Z,8.45
2022-12-03T05:47:37.265Z,9.25
2022-12-03T05:50:04.078Z,8.52
2022-12-03T05:52:47.962Z,8.75
2022-12-03T05:55:14.825Z,8.55
2022-12-03T06:01:02.290Z,9.15
2022-12-03T06:03:29.010Z,8.43
2022-12-03T06:05:55.747Z,9.20
2022-12-03T06:08:22.406Z,8.65
2022-12-03T06:10:49.021Z,8.90
2022-12-03T06:13:15.686Z,9.95
2022-12-03T06:15:44.184Z,8.63
2022-12-03T06:18:11.098Z,8.32
2022-12-03T06:20:37.892Z,9.02
2022-12-03T06:23:04.566Z,8.90
2022-12-03T06:25:31.150Z,8.18
2022-12-03T06:27:57.720Z,8.98
2022-12-03T06:30:24.321Z,8.75
2022-12-03T06:32:50.953Z,8.93
2022-12-03T06:35:17.495Z,8.73
2022-12-03T06:37:44.037Z,8.93
2022-12-03T06:40:11.103Z,9.35
2022-12-03T06:42:37.699Z,9.25
2022-12-03T06:45:04.723Z,9.52
2022-12-03T06:47:31.293Z,9.73
2022-12-03T06:49:57.880Z,9.38
2022-12-03T06:52:24.512Z,8.93
2022-12-03T06:54:51.236Z,9.25
2022-12-03T06:57:17.905Z,9.23
2022-12-03T06:59:44.449Z,8.38
2022-12-03T07:02:12.577Z,8.85
2022-12-03T07:04:52.770Z,9.15
2022-12-03T07:07:19.444Z,9.55
2022-12-03T07:09:45.985Z,8.82
2022-12-03T07:12:12.664Z,8.73
2022-12-03T07:14:39.250Z,9.35
2022-12-03T07:17:05.845Z,9.27
2022-12-03T07:19:33.166Z,9.15
2022-12-03T07:22:00.206Z,9.60
2022-12-03T07:24:26.782Z,8.48
2022-12-03T07:26:53.359Z,8.90
2022-12-03T07:29:19.941Z,9.70
2022-12-03T07:31:46.589Z,9.38
2022-12-03T07:34:13.226Z,9.27
2022-12-03T07:36:39.771Z,8.82
2022-12-03T07:39:06.349Z,8.80
2022-12-03T07:41:32.925Z,9.82
2022-12-03T07:43:59.521Z,9.27
2022-12-03T07:46:26.180Z,8.93
2022-12-03T07:48:52.793Z,9.98
2022-12-03T07:51:19.386Z,9.57
2022-12-03T07:53:45.934Z,9.25
2022-12-03T07:56:12.552Z,9.65
2022-12-03T07:58:39.179Z,9.30
2022-12-03T08:01:05.974Z,10.07
2022-12-03T08:03:32.642Z,9.45
2022-12-03T08:05:59.204Z,9.70
2022-12-03T08:08:25.797Z,9.30
2022-12-03T08:10:52.415Z,9.30
2022-12-03T08:13:19.193Z,9.98
2022-12-03T08:15:45.830Z,9.55
2022-12-03T08:18:14.946Z,10.50
2022-12-03T08:20:41.861Z,10.15
2022-12-03T08:23:14.717Z,9.93
2022-12-03T08:25:41.664Z,10.13
2022-12-03T08:28:12.368Z,9.88
2022-12-03T08:30:39.286Z,10.05
2022-12-03T08:33:31.031Z,9.43
2022-12-03T08:35:57.632Z,9.57
2022-12-03T08:38:25.249Z,9.40
2022-12-03T08:40:52.389Z,10.90
2022-12-03T08:43:26.149Z,9.57
2022-12-03T08:45:56.289Z,9.57
2022-12-03T08:48:37.098Z,10.32
2022-12-03T08:51:15.484Z,9.57
2022-12-03T08:53:54.286Z,10.35
2022-12-03T08:56:28.925Z,9.55
2022-12-03T08:58:57.781Z,10.05
2022-12-03T09:01:39.094Z,9.93
2022-12-03T09:04:16.582Z,9.40
2022-12-03T09:06:43.283Z,9.88
2022-12-03T09:09:09.860Z,9.65
2022-12-03T09:11:36.628Z,9.60
2022-12-03T09:14:03.454Z,9.38
2022-12-03T09:16:30.165Z,9.57
2022-12-03T09:18:56.821Z,9.68
2022-12-03T09:21:23.346Z,9.98
2022-12-03T09:23:49.904Z,10.10
2022-12-03T09:26:16.442Z,9.25
2022-12-03T09:28:43.078Z,9.73
2022-12-03T09:31:09.636Z,9.80
2022-12-03T09:33:36.186Z,9.43
2022-12-03T09:36:02.789Z,8.55
2022-12-03T09:38:29.401Z,9.57
2022-12-03T09:40:55.935Z,9.23
2022-12-03T09:43:24.433Z,9.20
2022-12-03T09:45:51.085Z,9.30
2022-12-03T09:48:18.558Z,9.73
2022-12-03T09:50:45.166Z,9.00
2022-12-03T09:53:17.751Z,10.48
2022-12-03T09:55:45.303Z,9.77
2022-12-03T09:58:12.916Z,9.52
2022-12-03T10:00:39.477Z,9.50
2022-12-03T10:03:06.389Z,9.05
2022-12-03T10:05:33.503Z,9.75
2022-12-03T10:08:10.409Z,9.40
2022-12-03T10:10:37.249Z,9.65
2022-12-03T10:13:04.038Z,9.23
2022-12-03T10:15:30.607Z,9.18
2022-12-03T10:17:58.316Z,9.20
2022-12-03T10:20:25.046Z,9.38
2022-12-03T10:22:51.798Z,10.18
2022-12-03T10:25:20.093Z,8.57
2022-12-03T10:28:02.830Z,9.05
2022-12-03T10:30:29.556Z,9.13
2022-12-03T10:32:57.601Z,8.13
2022-12-03T10:35:38.178Z,8.68
2022-12-03T10:38:19.414Z,8.90
2022-12-03T10:40:46.165Z,9.38
2022-12-03T10:43:18.803Z,7.93
2022-12-03T10:45:45.805Z,9.00
2022-12-03T10:48:13.589Z,8.77
2022-12-03T10:50:50.620Z,7.80
2022-12-03T10:53:17.744Z,8.25
2022-12-03T10:55:44.978Z,8.50
2022-12-03T10:58:24.361Z,8.10
2022-12-03T11:00:52.401Z,8.73
2022-12-03T11:03:21.381Z,8.20
2022-12-03T11:05:48.445Z,8.60
2022-12-03T11:08:19.913Z,8.80
2022-12-03T11:10:55.168Z,8.15
2022-12-03T11:13:29.189Z,8.02
2022-12-03T11:15:55.968Z,8.05
2022-12-03T11:18:37.998Z,7.95
2022-12-03T11:21:11.368Z,7.82
2022-12-03T11:23:46.942Z,7.85
2022-12-03T11:26:19.613Z,7.97
2022-12-03T11:28:46.469Z,8.52
2022-12-03T11:31:36.404Z,8.15
2022-12-03T11:34:14.909Z,8.57
2022-12-03T11:37:09.659Z,7.87
2022-12-03T11:39:48.192Z,7.85
2022-12-03T11:42:26.860Z,7.32
2022-12-03T11:45:05.451Z,7.55
2022-12-03T11:47:38.789Z,7.82
2022-12-03T11:50:18.142Z,8.27
2022-12-03T11:52:45.230Z,8.25
2022-12-03T11:55:30.369Z,7.80
2022-12-03T11:58:04.346Z,7.70
2022-12-03T12:00:30.925Z,6.85
2022-12-03T12:02:58.083Z,6.97
2022-12-03T12:05:27.632Z,7.50
2022-12-03T12:07:54.455Z,7.03
2022-12-03T12:10:46.776Z,7.28
2022-12-03T12:13:31.736Z,7.00
2022-12-03T12:15:59.214Z,7.43
2022-12-03T12:18:55.014Z,7.07
2022-12-03T12:22:17.329Z,6.95
2022-12-03T12:24:47.569Z,6.55
2022-12-03T12:27:23.805Z,6.93
2022-12-03T12:29:55.051Z,7.12
2022-12-03T12:32:47.793Z,7.10
2022-12-03T12:35:21.653Z,6.93
2022-12-03T12:37:58.124Z,6.85
2022-12-03T12:40:27.940Z,6.75
2022-12-03T12:42:57.550Z,6.87
2022-12-03T12:45:44.658Z,7.18
2022-12-03T12:48:19.988Z,6.20
2022-12-03T12:50:47.569Z,6.70
2022-12-03T12:53:27.179Z,6.55
2022-12-03T12:56:01.326Z,6.60
2022-12-03T12:58:31.965Z,7.28
2022-12-03T13:01:05.454Z,7.28
2022-12-03T13:03:37.104Z,6.70
2022-12-03T13:06:03.802Z,6.60
2022-12-03T13:08:45.784Z,7.05
2022-12-03T13:11:24.567Z,6.85
2022-12-03T13:13:51.229Z,6.95
2022-12-03T13:16:33.715Z,6.50
2022-12-03T13:19:00.571Z,6.65
2022-12-03T13:21:40.425Z,6.35
2022-12-03T13:24:32.304Z,6.57
2022-12-03T13:27:00.088Z,6.93
2022-12-03T13:29:27.192Z,6.68
2022-12-03T13:32:01.888Z,6.80
2022-12-03T13:34:33.483Z,6.87
2022-12-03T13:37:05.197Z,7.18
2022-12-03T13:39:35.849Z,6.28
2022-12-03T13:42:38.856Z,7.15
2022-12-03T13:45:17.639Z,6.80
2022-12-03T13:47:45.658Z,6.35
2022-12-03T13:50:23.356Z,7.07
2022-12-03T13:52:50.005Z,7.18
2022-12-03T13:55:25.652Z,6.70
2022-12-03T14:00:19.168Z,6.35
2022-12-03T14:02:45.833Z,6.60
2022-12-03T14:05:12.509Z,6.45
2022-12-03T14:07:39.277Z,6.65
2022-12-03T14:10:07.343Z,6.25
2022-12-03T14:12:34.028Z,6.28
2022-12-03T14:15:01.713Z,6.25
2022-12-03T14:17:28.393Z,6.30
2022-12-03T14:19:55.067Z,6.53
2022-12-03T14:22:23.404Z,6.30
2022-12-03T14:24:50.354Z,6.12
2022-12-03T14:27:16.905Z,6.47
2022-12-03T14:29:43.450Z,6.07
2022-12-03T14:32:10.180Z,6.75
2022-12-03T14:34:36.796Z,5.90
2022-12-03T14:37:03.409Z,5.87
2022-12-03T14:39:30.007Z,6.22
2022-12-03T14:42:14.666Z,6.18
2022-12-03T14:44:42.724Z,6.43
2022-12-03T14:47:09.650Z,6.47
2022-12-03T14:49:36.367Z,6.43
2022-12-03T14:52:03.114Z,6.20
2022-12-03T14:54:30.085Z,6.68
2022-12-03T14:56:56.732Z,6.60
2022-12-03T14:59:27.649Z,6.35
2022-12-03T15:01:54.849Z,6.15
2022-12-03T15:04:21.596Z,6.68
2022-12-03T15:06:48.212Z,6.40
2022-12-03T15:09:14.803Z,6.43
2022-12-03T15:11:45.894Z,6.00
2022-12-03T15:14:13.018Z,5.93
2022-12-03T15:16:39.659Z,5.78
2022-12-03T15:19:06.283Z,6.60
2022-12-03T15:21:34.892Z,6.35
2022-12-03T15:24:02.184Z,6.03
2022-12-03T15:26:28.826Z,6.40
2022-12-03T15:28:55.386Z,6.20
2022-12-03T15:31:22.051Z,6.50
2022-12-03T15:33:48.841Z,6.25
2022-12-03T15:36:15.454Z,6.28
2022-12-03T15:38:42.043Z,6.57
2022-12-03T15:41:28.866Z,6.35
2022-12-03T15:43:59.918Z,6.37
2022-12-03T15:46:28.003Z,6.30
2022-12-03T15:48:55.221Z,6.45
2022-12-03T15:51:21.827Z,6.50
2022-12-03T15:53:48.432Z,6.22
2022-12-03T15:56:15.008Z,5.93
2022-12-03T15:58:41.638Z,5.78
2022-12-03T16:01:08.649Z,6.78
2022-12-03T16:03:35.524Z,6.45
2022-12-03T16:06:02.106Z,5.87
2022-12-03T16:08:28.690Z,5.95
2022-12-03T16:10:55.269Z,6.57
2022-12-03T16:13:21.831Z,6.60
2022-12-03T16:15:48.442Z,6.60
2022-12-03T16:18:15.062Z,6.15
2022-12-03T16:20:41.596Z,6.50
2022-12-03T16:23:08.277Z,6.35
2022-12-03T16:25:34.874Z,6.28
2022-12-03T16:28:01.433Z,6.47
2022-12-03T16:30:28.043Z,6.82
2022-12-03T16:32:54.641Z,6.60
2022-12-03T16:35:21.198Z,6.95
2022-12-03T16:37:47.753Z,6.07
2022-12-03T16:40:14.323Z,6.72
2022-12-03T16:42:40.985Z,6.05
2022-12-03T16:45:08.375Z,6.53
2022-12-03T16:47:35.259Z,6.78
2022-12-03T16:50:02.589Z,7.22
2022-12-03T16:52:29.174Z,6.72
2022-12-03T16:54:55.749Z,6.82
2022-12-03T16:57:22.302Z,6.60
2022-12-03T16:59:48.878Z,6.97
2022-12-03T17:02:15.591Z,7.22
2022-12-03T17:04:42.220Z,7.00
2022-12-03T17:07:08.769Z,6.25
2022-12-03T17:09:35.337Z,6.57
2022-12-03T17:12:01.932Z,6.12
2022-12-03T17:14:33.065Z,7.00
2022-12-03T17:17:00.122Z,7.07
2022-12-03T17:19:26.710Z,7.00
2022-12-03T17:21:54.332Z,6.82
2022-12-03T17:24:21.438Z,7.03
2022-12-03T17:26:48.102Z,6.78
2022-12-03T17:29:14.667Z,6.55
2022-12-03T17:31:42.630Z,8.60
2022-12-03T17:34:09.764Z,7.37
2022-12-03T17:36:36.339Z,6.70
2022-12-03T17:39:02.926Z,7.50
2022-12-03T17:41:29.614Z,7.72
2022-12-03T17:43:56.189Z,7.55
2022-12-03T17:46:22.841Z,7.22
2022-12-03T17:48:49.639Z,7.43
2022-12-03T17:51:16.259Z,7.70
2022-12-03T17:53:42.880Z,7.05
2022-12-03T17:56:09.652Z,6.62
2022-12-03T17:58:36.244Z,7.25
2022-12-03T18:01:03.444Z,7.50
2022-12-03T18:03:30.548Z,7.37
2022-12-03T18:05:57.227Z,7.25
2022-12-03T18:08:23.948Z,7.78
2022-12-03T18:10:50.631Z,7.22
2022-12-03T18:13:17.337Z,7.43
2022-12-03T18:15:43.986Z,8.10
2022-12-03T18:18:10.685Z,7.32
2022-12-03T18:20:37.438Z,8.30
2022-12-03T18:23:04.029Z,8.55
2022-12-03T18:25:30.585Z,7.15
2022-12-03T18:27:57.190Z,8.63
2022-12-03T18:30:23.781Z,8.70
2022-12-03T18:32:50.889Z,7.45
2022-12-03T18:35:18.048Z,7.90
2022-12-03T18:37:44.724Z,8.38
2022-12-03T18:40:22.680Z,7.85
2022-12-03T18:42:49.265Z,8.18
2022-12-03T18:45:16.336Z,8.25
2022-12-03T18:47:43.061Z,7.65
2022-12-03T18:50:10.011Z,7.75
2022-12-03T18:52:36.622Z,8.25
2022-12-03T18:55:03.928Z,8.43
2022-12-03T18:57:30.478Z,8.50
2022-12-03T18:59:57.298Z,7.87
2022-12-03T19:03:00.616Z,8.65
2022-12-03T19:05:10.870Z,8.75
2022-12-03T19:07:37.618Z,8.32
2022-12-03T19:10:04.664Z,8.93
2022-12-03T19:12:31.702Z,8.40
2022-12-03T19:14:58.493Z,8.20
2022-12-03T19:17:27.047Z,8.75
2022-12-03T19:19:53.977Z,8.75
2022-12-03T19:22:20.868Z,9.13
2022-12-03T19:24:47.549Z,8.27
2022-12-03T19:27:14.233Z,8.82
2022-12-03T19:29:40.829Z,9.43
2022-12-03T19:32:07.460Z,8.32
2022-12-03T19:34:34.067Z,8.68
2022-12-03T19:37:00.669Z,8.63
2022-12-03T19:39:27.328Z,9.13
2022-12-03T19:41:53.912Z,9.48
2022-12-03T19:44:20.512Z,8.82
2022-12-03T19:46:51.177Z,8.57
2022-12-03T19:49:20.859Z,9.02
2022-12-03T19:51:47.543Z,8.98
2022-12-03T19:54:14.126Z,9.00
2022-12-03T19:56:40.723Z,9.05
2022-12-03T19:59:07.971Z,9.27
2022-12-03T20:01:35.348Z,8.48
2022-12-03T20:04:02.700Z,9.88
2022-12-03T20:06:31.592Z,9.48
2022-12-03T20:08:59.206Z,8.85
2022-12-03T20:11:27.865Z,9.10
2022-12-03T20:13:56.013Z,9.30
2022-12-03T20:16:22.782Z,8.57
2022-12-03T20:18:49.521Z,8.55
2022-12-03T20:21:17.614Z,8.82
2022-12-03T20:23:44.245Z,8.27
2022-12-03T20:26:12.890Z,7.90
2022-12-03T20:28:39.676Z,10.20
2022-12-03T20:31:10.720Z,9.07
2022-12-03T20:33:42.436Z,8.82
2022-12-03T20:36:09.937Z,9.43
2022-12-03T20:38:37.239Z,9.65
2022-12-03T20:41:08.740Z,8.57
2022-12-03T20:43:35.384Z,8.85
2022-12-03T20:46:15.380Z,9.15
2022-12-03T20:48:42.476Z,9.18
2022-12-03T20:51:10.673Z,9.38
2022-12-03T20:53:37.365Z,8.88
2022-12-03T20:56:04.523Z,8.45
2022-12-03T20:58:31.298Z,9.35
2022-12-03T21:01:16.169Z,9.07
2022-12-03T21:03:43.624Z,9.95
2022-12-03T21:06:10.360Z,8.88
2022-12-03T21:08:41.625Z,8.68
2022-12-03T21:11:19.656Z,8.77
2022-12-03T21:13:46.482Z,9.70
2022-12-03T21:16:17.575Z,8.93
2022-12-03T21:18:44.184Z,8.45
2022-12-03T21:21:11.050Z,9.15
2022-12-03T21:23:37.636Z,9.60
2022-12-03T21:26:04.796Z,8.75
2022-12-03T21:28:31.508Z,8.73
2022-12-03T21:31:06.166Z,9.10
2022-12-03T21:33:32.900Z,8.53
2022-12-03T21:35:59.729Z,9.27
2022-12-03T21:38:26.433Z,8.48
2022-12-03T21:40:53.186Z,9.25
2022-12-03T21:43:19.744Z,8.85
2022-12-03T21:45:46.383Z,9.18
2022-12-03T21:48:13.590Z,9.02
2022-12-03T21:50:40.188Z,9.93
2022-12-03T21:53:06.863Z,9.30
2022-12-03T21:55:33.499Z,9.98
2022-12-03T21:58:00.116Z,8.85
2022-12-03T22:00:26.747Z,8.93
2022-12-03T22:02:53.372Z,9.23
2022-12-03T22:05:20.015Z,9.57
2022-12-03T22:07:46.645Z,9.75
2022-12-03T22:10:13.274Z,9.07
2022-12-03T22:12:41.835Z,9.60
2022-12-03T22:15:13.533Z,9.48
2022-12-03T22:17:45.347Z,9.82
2022-12-03T22:20:12.331Z,10.20
2022-12-03T22:22:38.953Z,9.52
2022-12-03T22:25:05.625Z,8.73
2022-12-03T22:27:32.204Z,9.70
2022-12-03T22:29:58.781Z,10.05
2022-12-03T22:32:25.785Z,10.18
2022-12-03T22:34:52.384Z,9.88
2022-12-03T22:37:18.932Z,10.18
2022-12-03T22:39:45.481Z,9.43
2022-12-03T22:42:12.087Z,10.18
2022-12-03T22:44:38.643Z,10.40
2022-12-03T22:47:05.311Z,9.48
2022-12-03T22:49:31.956Z,9.70
2022-12-03T22:51:58.526Z,9.90
2022-12-03T22:54:25.098Z,9.15
2022-12-03T22:56:51.750Z,9.73
2022-12-03T22:59:18.510Z,9.48
2022-12-03T23:01:45.565Z,10.50
2022-12-03T23:04:12.259Z,9.77
2022-12-03T23:06:38.944Z,9.45
2022-12-03T23:09:06.004Z,9.90
2022-12-03T23:11:32.691Z,10.27
2022-12-03T23:13:59.649Z,10.63
2022-12-03T23:16:28.199Z,9.98
2022-12-03T23:18:54.849Z,9.60
2022-12-03T23:21:28.986Z,9.93
2022-12-03T23:23:57.305Z,9.57
2022-12-03T23:26:23.933Z,10.65
2022-12-03T23:28:50.546Z,10.35
2022-12-03T23:31:24.635Z,10.02
2022-12-03T23:33:51.392Z,9.52
2022-12-03T23:36:18.001Z,10.75
2022-12-03T23:38:44.638Z,10.15
2022-12-03T23:41:15.580Z,9.10
2022-12-03T23:43:42.194Z,9.60
2022-12-03T23:46:10.778Z,9.45
2022-12-03T23:48:37.373Z,10.15
2022-12-03T23:51:12.275Z,10.02
2022-12-03T23:53:38.933Z,10.48
2022-12-03T23:56:09.576Z,9.48
2022-12-03T23:58:36.129Z,9.25
